createdAt,value
2018-08-11T00:01:37.180Z,1.80
2018-08-11T00:04:06.524Z,1.40
2018-08-11T00:06:35.354Z,1.83
2018-08-11T00:09:04.816Z,1.50
2018-08-11T00:11:33.932Z,2.43
2018-08-11T00:17:02.284Z,1.47
2018-08-11T00:19:31.167Z,1.70
2018-08-11T00:22:00.044Z,1.50
2018-08-11T00:24:28.915Z,1.53
2018-08-11T00:26:58.492Z,1.37
2018-08-11T00:29:28.051Z,1.50
2018-08-11T00:31:56.868Z,1.90
2018-08-11T00:34:25.740Z,1.50
2018-08-11T00:37:25.307Z,1.30
2018-08-11T00:39:54.617Z,1.43
2018-08-11T00:42:23.536Z,1.33
2018-08-11T00:44:52.363Z,1.60
2018-08-11T00:47:21.510Z,1.43
2018-08-11T00:49:51.068Z,1.70
2018-08-11T00:52:20.700Z,1.57
2018-08-11T00:54:49.513Z,1.30
2018-08-11T00:57:18.991Z,1.63
2018-08-11T00:59:49.303Z,2.07
2018-08-11T01:02:18.889Z,1.47
2018-08-11T01:04:48.473Z,1.30
2018-08-11T01:07:17.619Z,1.40
2018-08-11T01:09:47.034Z,1.60
2018-08-11T01:12:16.527Z,1.50
2018-08-11T01:14:46.063Z,1.80
2018-08-11T01:17:15.661Z,1.67
2018-08-11T01:19:44.601Z,1.13
2018-08-11T01:22:13.393Z,1.50
2018-08-11T01:24:42.192Z,1.37
2018-08-11T01:27:11.649Z,1.60
2018-08-11T01:29:40.907Z,1.30
2018-08-11T01:32:09.754Z,1.53
2018-08-11T01:34:38.503Z,1.50
2018-08-11T01:37:07.357Z,1.50
2018-08-11T01:39:36.867Z,1.50
2018-08-11T01:42:05.650Z,1.77
2018-08-11T01:44:34.539Z,1.43
2018-08-11T01:47:03.449Z,1.67
2018-08-11T01:49:32.815Z,1.70
2018-08-11T01:52:02.339Z,1.30
2018-08-11T01:54:31.151Z,1.60
2018-08-11T01:57:00.736Z,1.50
2018-08-11T01:59:29.501Z,1.87
2018-08-11T02:01:59.227Z,1.50
2018-08-11T02:04:28.567Z,1.77
2018-08-11T02:06:57.392Z,1.10
2018-08-11T02:09:26.467Z,1.87
2018-08-11T02:11:55.264Z,1.67
2018-08-11T02:14:24.015Z,2.47
2018-08-11T02:16:52.939Z,1.53
2018-08-11T02:19:22.167Z,2.60
2018-08-11T02:21:51.034Z,1.37
2018-08-11T02:24:20.747Z,1.90
2018-08-11T02:26:50.236Z,1.60
2018-08-11T02:29:18.994Z,1.67
2018-08-11T02:31:48.923Z,1.60
2018-08-11T02:34:17.993Z,1.80
2018-08-11T02:36:47.095Z,1.60
2018-08-11T02:39:16.300Z,2.00
2018-08-11T02:41:46.108Z,1.67
2018-08-11T02:44:15.130Z,2.00
2018-08-11T02:46:43.935Z,1.67
2018-08-11T02:49:13.690Z,2.47
2018-08-11T02:51:42.840Z,1.43
2018-08-11T02:54:11.574Z,1.60
2018-08-11T02:56:41.116Z,1.40
2018-08-11T02:59:10.054Z,2.30
2018-08-11T03:01:38.866Z,1.40
2018-08-11T03:04:08.147Z,1.90
2018-08-11T03:06:36.893Z,1.67
2018-08-11T03:09:08.336Z,1.97
2018-08-11T03:11:37.136Z,1.90
2018-08-11T03:14:06.083Z,2.00
2018-08-11T03:16:34.872Z,1.60
2018-08-11T03:19:04.253Z,2.17
2018-08-11T03:21:33.003Z,1.50
2018-08-11T03:24:01.823Z,1.93
2018-08-11T03:26:31.236Z,1.60
2018-08-11T03:29:00.768Z,1.90
2018-08-11T03:31:30.112Z,1.27
2018-08-11T03:33:58.904Z,1.70
2018-08-11T03:36:27.643Z,1.73
2018-08-11T03:38:56.432Z,1.50
2018-08-11T03:41:25.199Z,1.80
2018-08-11T03:43:54.488Z,1.80
2018-08-11T03:46:23.246Z,1.67
2018-08-11T03:48:52.699Z,1.50
2018-08-11T03:51:22.175Z,1.80
2018-08-11T03:53:51.003Z,1.43
2018-08-11T03:56:20.148Z,1.80
2018-08-11T03:58:49.512Z,1.63
2018-08-11T04:01:18.470Z,1.90
2018-08-11T04:03:48.480Z,1.43
2018-08-11T04:06:18.196Z,1.37
2018-08-11T04:08:47.167Z,1.57
2018-08-11T04:11:16.784Z,2.03
2018-08-11T04:13:45.891Z,1.73
2018-08-11T04:16:15.947Z,1.80
2018-08-11T04:18:45.564Z,1.93
2018-08-11T04:21:15.793Z,1.60
2018-08-11T04:23:46.143Z,1.80
2018-08-11T04:26:15.855Z,1.63
2018-08-11T04:28:46.096Z,1.90
2018-08-11T04:31:15.720Z,2.00
2018-08-11T04:33:44.549Z,1.90
2018-08-11T04:36:13.517Z,1.60
2018-08-11T04:38:42.308Z,2.33
2018-08-11T04:41:11.133Z,1.77
2018-08-11T04:43:40.398Z,2.00
2018-08-11T04:46:09.263Z,1.80
2018-08-11T04:48:38.652Z,1.90
2018-08-11T04:51:08.096Z,1.73
2018-08-11T04:53:36.863Z,1.90
2018-08-11T04:56:06.400Z,1.70
2018-08-11T04:58:35.688Z,1.90
2018-08-11T05:01:04.460Z,1.60
2018-08-11T05:03:33.893Z,2.37
2018-08-11T05:06:02.857Z,1.93
2018-08-11T05:08:31.622Z,2.00
2018-08-11T05:11:00.466Z,2.00
2018-08-11T05:13:29.371Z,2.53
2018-08-11T05:15:58.331Z,1.73
2018-08-11T05:18:27.140Z,1.90
2018-08-11T05:20:56.580Z,2.30
2018-08-11T05:23:25.756Z,2.00
2018-08-11T05:25:55.289Z,1.70
2018-08-11T05:28:24.728Z,2.23
2018-08-11T05:30:54.246Z,2.00
2018-08-11T05:33:23.036Z,1.73
2018-08-11T05:35:51.883Z,1.90
2018-08-11T05:38:20.721Z,1.83
2018-08-11T05:40:49.490Z,2.17
2018-08-11T05:43:19.068Z,2.10
2018-08-11T05:45:48.097Z,1.93
2018-08-11T05:48:18.296Z,1.80
2018-08-11T05:50:47.986Z,2.10
2018-08-11T05:53:17.925Z,1.57
2018-08-11T05:55:47.967Z,2.07
2018-08-11T05:58:17.980Z,2.10
2018-08-11T06:00:47.874Z,2.00
2018-08-11T06:03:18.329Z,1.23
2018-08-11T06:05:47.925Z,2.17
2018-08-11T06:08:17.021Z,2.00
2018-08-11T06:10:46.715Z,2.17
2018-08-11T06:13:15.747Z,1.80
2018-08-11T06:15:45.473Z,2.17
2018-08-11T06:18:14.625Z,1.90
2018-08-11T06:20:44.048Z,1.90
2018-08-11T06:23:12.840Z,1.90
2018-08-11T06:25:42.363Z,1.87
2018-08-11T06:28:11.710Z,1.87
2018-08-11T06:30:41.124Z,1.87
2018-08-11T06:33:09.891Z,1.60
2018-08-11T06:35:38.713Z,1.70
2018-08-11T06:38:07.591Z,1.70
2018-08-11T06:40:36.447Z,1.63
2018-08-11T06:43:05.767Z,2.07
2018-08-11T06:45:34.575Z,1.77
2018-08-11T06:48:04.046Z,1.47
2018-08-11T06:50:33.348Z,1.47
2018-08-11T06:53:02.176Z,1.63
2018-08-11T06:55:31.598Z,1.20
2018-08-11T06:58:00.804Z,1.80
2018-08-11T07:00:29.582Z,1.50
2018-08-11T07:02:58.790Z,1.70
2018-08-11T07:05:27.560Z,1.60
2018-08-11T07:07:56.296Z,2.07
2018-08-11T07:10:25.085Z,1.63
2018-08-11T07:12:53.888Z,1.63
2018-08-11T07:15:22.802Z,1.27
2018-08-11T07:17:51.574Z,1.23
2018-08-11T07:20:21.287Z,1.67
2018-08-11T07:22:50.102Z,1.77
2018-08-11T07:25:19.532Z,1.53
2018-08-11T07:27:49.140Z,1.73
2018-08-11T07:30:18.695Z,1.47
2018-08-11T07:32:48.311Z,1.60
2018-08-11T07:35:17.291Z,1.50
2018-08-11T07:37:46.371Z,1.90
2018-08-11T07:40:15.629Z,1.57
2018-08-11T07:42:45.442Z,2.33
2018-08-11T07:45:14.218Z,1.90
2018-08-11T07:47:43.676Z,1.57
2018-08-11T07:50:13.226Z,1.90
2018-08-11T07:52:42.032Z,1.57
2018-08-11T07:55:10.809Z,1.73
2018-08-11T07:57:40.256Z,1.40
2018-08-11T08:00:10.802Z,1.80
2018-08-11T08:02:40.517Z,1.60
2018-08-11T08:05:09.697Z,2.10
2018-08-11T08:07:38.421Z,1.50
2018-08-11T08:10:07.755Z,1.60
2018-08-11T08:12:36.519Z,1.47
2018-08-11T08:15:06.047Z,1.70
2018-08-11T08:17:34.896Z,1.63
2018-08-11T08:20:04.507Z,2.13
2018-08-11T08:22:33.338Z,1.27
2018-08-11T08:25:02.836Z,1.50
2018-08-11T08:27:32.171Z,1.83
2018-08-11T08:30:00.917Z,1.50
2018-08-11T08:32:30.246Z,1.40
2018-08-11T08:34:59.005Z,1.27
2018-08-11T08:37:27.724Z,1.30
2018-08-11T08:39:56.487Z,1.60
2018-08-11T08:42:25.801Z,1.47
2018-08-11T08:44:54.575Z,1.97
2018-08-11T08:47:23.814Z,1.57
2018-08-11T08:49:53.002Z,1.60
2018-08-11T08:52:21.723Z,1.20
2018-08-11T08:54:50.762Z,1.70
2018-08-11T08:57:20.072Z,1.60
2018-08-11T08:59:49.013Z,1.27
2018-08-11T09:02:18.703Z,1.10
2018-08-11T09:04:49.365Z,1.70
2018-08-11T09:07:18.407Z,1.40
2018-08-11T09:09:47.628Z,1.30
2018-08-11T09:12:16.725Z,1.37
2018-08-11T09:14:46.345Z,1.53
2018-08-11T09:17:15.440Z,1.10
2018-08-11T09:19:45.443Z,1.40
2018-08-11T09:22:14.366Z,1.40
2018-08-11T09:24:43.313Z,1.50
2018-08-11T09:27:12.739Z,1.00
2018-08-11T09:29:41.578Z,1.40
2018-08-11T09:32:11.072Z,1.33
2018-08-11T09:34:39.876Z,1.10
2018-08-11T09:37:08.644Z,1.30
2018-08-11T09:39:37.444Z,1.60
2018-08-11T09:42:06.907Z,1.20
2018-08-11T09:44:35.713Z,1.33
2018-08-11T09:47:04.576Z,1.60
2018-08-11T09:49:34.342Z,0.90
2018-08-11T09:52:03.696Z,1.50
2018-08-11T09:54:32.433Z,1.30
2018-08-11T09:57:01.679Z,1.50
2018-08-11T09:59:30.424Z,1.20
2018-08-11T10:02:04.780Z,1.20
2018-08-11T10:04:34.876Z,1.17
2018-08-11T10:07:03.764Z,1.50
2018-08-11T10:09:32.563Z,1.10
2018-08-11T10:12:01.323Z,1.57
2018-08-11T10:14:30.112Z,0.90
2018-08-11T10:16:58.999Z,1.53
2018-08-11T10:19:28.476Z,1.20
2018-08-11T10:21:57.227Z,1.30
2018-08-11T10:24:26.010Z,1.10
2018-08-11T10:26:55.531Z,1.50
2018-08-11T10:29:24.257Z,0.87
2018-08-11T10:31:53.817Z,2.57
2018-08-11T10:34:22.566Z,1.53
2018-08-11T10:36:51.323Z,1.70
2018-08-11T10:39:20.089Z,1.03
2018-08-11T10:41:49.866Z,1.30
2018-08-11T10:44:18.785Z,1.20
2018-08-11T10:46:47.948Z,1.17
2018-08-11T10:49:17.608Z,1.00
2018-08-11T10:51:49.759Z,1.70
2018-08-11T10:54:18.623Z,1.10
2018-08-11T10:56:48.268Z,1.17
2018-08-11T10:59:17.338Z,1.20
2018-08-11T11:01:46.418Z,1.43
2018-08-11T11:04:15.996Z,1.03
2018-08-11T11:06:44.960Z,1.30
2018-08-11T11:09:13.759Z,1.23
2018-08-11T11:11:42.565Z,1.30
2018-08-11T11:14:11.385Z,1.47
2018-08-11T11:16:40.213Z,1.20
2018-08-11T11:19:09.783Z,1.20
2018-08-11T11:21:38.568Z,1.30
2018-08-11T11:24:07.371Z,2.23
2018-08-11T11:26:36.847Z,1.30
2018-08-11T11:29:06.251Z,1.60
2018-08-11T11:31:35.947Z,1.10
2018-08-11T11:34:05.085Z,1.37
2018-08-11T11:36:33.852Z,0.80
2018-08-11T11:39:02.764Z,1.93
2018-08-11T11:41:32.171Z,1.20
2018-08-11T11:44:01.096Z,1.47
2018-08-11T11:46:29.839Z,0.90
2018-08-11T11:48:59.024Z,1.87
2018-08-11T11:51:28.332Z,1.00
2018-08-11T11:53:57.510Z,1.70
2018-08-11T11:56:26.672Z,1.20
2018-08-11T11:58:55.850Z,1.70
2018-08-11T12:01:24.664Z,1.20
2018-08-11T12:03:54.073Z,1.70
2018-08-11T12:06:22.837Z,1.10
2018-08-11T12:08:51.628Z,1.23
2018-08-11T12:11:20.496Z,1.33
2018-08-11T12:13:49.268Z,1.40
2018-08-11T12:16:18.254Z,1.00
2018-08-11T12:18:47.591Z,1.37
2018-08-11T12:21:17.202Z,1.27
2018-08-11T12:23:46.186Z,1.10
2018-08-11T12:26:15.892Z,1.10
2018-08-11T12:28:45.573Z,1.50
2018-08-11T12:31:15.283Z,1.10
2018-08-11T12:33:44.002Z,1.30
2018-08-11T12:36:13.011Z,1.07
2018-08-11T12:38:41.823Z,1.20
2018-08-11T12:41:10.668Z,1.53
2018-08-11T12:43:40.100Z,1.20
2018-08-11T12:46:09.745Z,1.40
2018-08-11T12:48:39.087Z,2.03
2018-08-11T12:51:08.797Z,1.50
2018-08-11T12:53:38.072Z,1.40
2018-08-11T12:56:08.830Z,1.57
2018-08-11T12:58:38.046Z,1.30
2018-08-11T13:01:06.912Z,1.30
2018-08-11T13:03:36.395Z,1.50
2018-08-11T13:06:05.366Z,1.20
2018-08-11T13:08:34.072Z,1.60
2018-08-11T13:11:03.031Z,1.43
2018-08-11T13:13:31.768Z,1.57
2018-08-11T13:16:00.609Z,1.43
2018-08-11T13:18:29.388Z,1.63
2018-08-11T13:20:58.697Z,1.00
2018-08-11T13:23:27.414Z,1.57
2018-08-11T13:25:56.950Z,1.13
2018-08-11T13:28:26.428Z,1.73
2018-08-11T13:30:56.023Z,0.87
2018-08-11T13:33:24.868Z,1.30
2018-08-11T13:35:53.636Z,0.97
2018-08-11T13:38:22.480Z,1.07
2018-08-11T13:40:51.299Z,0.83
2018-08-11T13:43:21.017Z,1.20
2018-08-11T13:45:49.813Z,0.97
2018-08-11T13:48:19.495Z,1.17
2018-08-11T13:50:49.081Z,0.87
2018-08-11T13:53:18.881Z,1.50
2018-08-11T13:55:49.087Z,1.07
2018-08-11T13:58:20.222Z,1.93
2018-08-11T14:00:49.015Z,1.00
2018-08-11T14:03:19.140Z,1.20
2018-08-11T14:05:48.231Z,1.00
2018-08-11T14:08:18.184Z,1.60
2018-08-11T14:10:47.721Z,1.10
2018-08-11T14:13:17.528Z,1.87
2018-08-11T14:15:46.642Z,0.80
2018-08-11T14:18:15.946Z,1.03
2018-08-11T14:20:46.033Z,1.00
2018-08-11T14:23:15.186Z,1.40
2018-08-11T14:25:46.889Z,1.40
2018-08-11T14:28:16.732Z,1.27
2018-08-11T14:30:46.202Z,1.10
2018-08-11T14:33:15.160Z,1.53
2018-08-11T14:35:43.941Z,1.03
2018-08-11T14:38:12.751Z,1.37
2018-08-11T14:40:41.558Z,1.30
2018-08-11T14:43:11.147Z,1.43
2018-08-11T14:45:39.999Z,1.27
2018-08-11T14:48:09.563Z,1.63
2018-08-11T14:50:39.484Z,1.20
2018-08-11T14:53:08.915Z,1.53
2018-08-11T14:55:38.388Z,1.60
2018-08-11T14:58:07.877Z,1.60
2018-08-11T15:00:37.066Z,1.33
2018-08-11T15:03:06.519Z,1.47
2018-08-11T15:05:35.641Z,1.50
2018-08-11T15:08:04.424Z,2.37
2018-08-11T15:10:33.195Z,1.50
2018-08-11T15:13:01.988Z,2.00
2018-08-11T15:15:30.877Z,1.90
2018-08-11T15:17:59.708Z,1.90
2018-08-11T15:20:28.469Z,1.63
2018-08-11T15:22:57.211Z,1.83
2018-08-11T15:25:26.842Z,1.20
2018-08-11T15:27:56.431Z,2.10
2018-08-11T15:30:25.240Z,1.30
2018-08-11T15:32:54.566Z,1.50
2018-08-11T15:35:23.304Z,1.47
2018-08-11T15:37:52.062Z,1.17
2018-08-11T15:40:20.858Z,2.43
2018-08-11T15:42:50.519Z,1.40
2018-08-11T15:45:20.268Z,1.97
2018-08-11T15:47:49.523Z,1.20
2018-08-11T15:50:18.854Z,1.27
2018-08-11T15:52:48.457Z,1.10
2018-08-11T15:55:18.111Z,1.10
2018-08-11T15:57:48.473Z,0.90
2018-08-11T16:00:19.175Z,1.87
2018-08-11T16:02:48.940Z,1.20
2018-08-11T16:05:18.561Z,1.47
2018-08-11T16:07:48.507Z,1.30
2018-08-11T16:10:17.783Z,1.70
2018-08-11T16:12:47.027Z,1.50
2018-08-11T16:15:16.259Z,1.37
2018-08-11T16:17:45.780Z,1.60
2018-08-11T16:20:14.687Z,1.73
2018-08-11T16:22:43.492Z,1.80
2018-08-11T16:25:12.886Z,1.43
2018-08-11T16:27:43.064Z,1.60
2018-08-11T16:30:13.090Z,1.50
2018-08-11T16:32:42.447Z,1.63
2018-08-11T16:35:11.219Z,1.50
2018-08-11T16:37:40.024Z,1.70
2018-08-11T16:40:09.225Z,1.50
2018-08-11T16:42:38.502Z,1.90
2018-08-11T16:45:07.456Z,1.40
2018-08-11T16:47:36.821Z,2.67
2018-08-11T16:50:06.337Z,1.40
2018-08-11T16:52:35.824Z,1.70
2018-08-11T16:55:05.383Z,1.60
2018-08-11T16:57:35.102Z,1.90
2018-08-11T17:00:04.000Z,1.43
2018-08-11T17:02:33.792Z,2.00
2018-08-11T17:05:02.507Z,1.50
2018-08-11T17:07:31.234Z,2.40
2018-08-11T17:10:00.018Z,1.57
2018-08-11T17:12:29.494Z,2.07
2018-08-11T17:14:58.215Z,1.50
2018-08-11T17:17:26.967Z,2.07
2018-08-11T17:19:55.733Z,1.70
2018-08-11T17:22:24.651Z,2.73
2018-08-11T17:24:53.551Z,2.07
2018-08-11T17:27:22.892Z,1.47
2018-08-11T17:29:51.639Z,1.40
2018-08-11T17:32:20.911Z,1.53
2018-08-11T17:34:49.699Z,1.50
2018-08-11T17:37:19.040Z,1.60
2018-08-11T17:39:48.159Z,1.40
2018-08-11T17:42:18.590Z,1.43
2018-08-11T17:44:47.785Z,1.50
2018-08-11T17:47:17.313Z,1.57
2018-08-11T17:49:47.319Z,1.40
2018-08-11T17:52:17.473Z,1.70
2018-08-11T17:54:46.438Z,1.23
2018-08-11T17:57:16.388Z,1.50
2018-08-11T17:59:45.461Z,1.47
2018-08-11T18:02:15.185Z,1.30
2018-08-11T18:04:43.947Z,1.50
2018-08-11T18:07:12.732Z,1.53
2018-08-11T18:09:41.494Z,1.50
2018-08-11T18:12:10.511Z,1.30
2018-08-11T18:14:39.371Z,1.87
2018-08-11T18:17:09.052Z,1.57
2018-08-11T18:19:37.922Z,1.60
2018-08-11T18:22:06.899Z,1.47
2018-08-11T18:24:35.730Z,1.83
2018-08-11T18:27:05.416Z,1.60
2018-08-11T18:29:34.187Z,1.77
2018-08-11T18:32:03.583Z,1.40
2018-08-11T18:34:32.416Z,2.03
2018-08-11T18:37:01.179Z,1.50
2018-08-11T18:39:29.968Z,2.30
2018-08-11T18:41:59.489Z,1.90
2018-08-11T18:44:28.262Z,2.23
2018-08-11T18:46:57.559Z,1.50
2018-08-11T18:49:26.981Z,1.70
2018-08-11T18:51:56.439Z,1.57
2018-08-11T18:54:25.431Z,2.97
2018-08-11T18:56:54.843Z,1.63
2018-08-11T18:59:23.591Z,2.07
2018-08-11T19:01:52.858Z,1.90
2018-08-11T19:04:21.959Z,2.10
2018-08-11T19:06:50.823Z,1.70
2018-08-11T19:09:21.390Z,2.57
2018-08-11T19:11:50.263Z,1.60
2018-08-11T19:14:19.263Z,1.90
2018-08-11T19:16:48.355Z,1.80
2018-08-11T19:19:17.478Z,2.00
2018-08-11T19:21:46.412Z,1.70
2018-08-11T19:24:16.096Z,1.97
2018-08-11T19:26:46.215Z,2.00
2018-08-11T19:29:16.468Z,2.07
2018-08-11T19:31:45.891Z,2.30
2018-08-11T19:34:14.690Z,1.93
2018-08-11T19:36:43.548Z,2.10
2018-08-11T19:39:13.094Z,2.00
2018-08-11T19:41:42.756Z,2.30
2018-08-11T19:44:11.701Z,1.80
2018-08-11T19:46:41.065Z,2.17
2018-08-11T19:49:10.445Z,1.67
2018-08-11T19:51:39.766Z,2.30
2018-08-11T19:54:09.398Z,2.13
2018-08-11T19:56:38.831Z,3.13
2018-08-11T19:59:08.013Z,2.27
2018-08-11T20:01:36.828Z,2.47
2018-08-11T20:04:06.220Z,1.90
2018-08-11T20:06:35.001Z,2.63
2018-08-11T20:09:03.939Z,1.90
2018-08-11T20:11:32.736Z,2.37
2018-08-11T20:14:01.528Z,2.10
2018-08-11T20:16:30.383Z,2.50
2018-08-11T20:18:59.166Z,1.93
2018-08-11T20:21:28.670Z,3.00
2018-08-11T20:23:57.471Z,2.13
2018-08-11T20:26:27.028Z,2.73
2018-08-11T20:28:57.125Z,2.00
2018-08-11T20:31:26.498Z,2.40
2018-08-11T20:33:55.274Z,2.30
2018-08-11T20:36:24.052Z,2.50
2018-08-11T20:38:52.803Z,2.20
2018-08-11T20:41:23.163Z,2.47
2018-08-11T20:43:52.488Z,2.27
2018-08-11T20:46:22.080Z,2.43
2018-08-11T20:48:51.434Z,2.27
2018-08-11T20:51:20.728Z,2.87
2018-08-11T20:53:49.979Z,2.60
2018-08-11T20:56:20.209Z,2.23
2018-08-11T20:58:49.470Z,2.20
2018-08-11T21:01:18.689Z,2.40
2018-08-11T21:03:48.305Z,2.57
2018-08-11T21:06:17.843Z,2.37
2018-08-11T21:08:46.889Z,2.40
2018-08-11T21:11:16.127Z,2.40
2018-08-11T21:13:44.980Z,2.43
2018-08-11T21:16:13.948Z,2.60
2018-08-11T21:18:42.792Z,2.83
2018-08-11T21:21:11.563Z,2.20
2018-08-11T21:23:40.873Z,2.57
2018-08-11T21:26:10.432Z,2.43
2018-08-11T21:28:40.504Z,2.77
2018-08-11T21:31:09.867Z,2.70
2018-08-11T21:33:38.690Z,2.40
2018-08-11T21:36:07.504Z,2.90
2018-08-11T21:38:36.335Z,2.80
2018-08-11T21:41:05.175Z,3.43
2018-08-11T21:43:34.343Z,2.73
2018-08-11T21:46:03.155Z,3.13
2018-08-11T21:48:32.621Z,3.07
2018-08-11T21:51:02.087Z,3.43
2018-08-11T21:53:31.438Z,2.60
2018-08-11T21:56:00.738Z,3.47
2018-08-11T21:58:30.113Z,2.77
2018-08-11T22:01:06.288Z,3.47
2018-08-11T22:03:36.041Z,2.80
2018-08-11T22:06:04.848Z,2.83
2018-08-11T22:08:33.754Z,2.53
2018-08-11T22:11:02.554Z,3.03
2018-08-11T22:13:31.559Z,2.70
2018-08-11T22:16:00.693Z,3.37
2018-08-11T22:18:29.478Z,2.83
2018-08-11T22:20:58.283Z,2.97
2018-08-11T22:23:27.080Z,2.50
2018-08-11T22:25:56.490Z,3.33
2018-08-11T22:28:26.410Z,2.63
2018-08-11T22:30:55.874Z,2.73
2018-08-11T22:33:24.674Z,2.67
2018-08-11T22:35:53.537Z,3.17
2018-08-11T22:38:22.620Z,2.90
2018-08-11T22:40:51.797Z,3.10
2018-08-11T22:43:21.655Z,2.60
2018-08-11T22:45:50.498Z,3.20
2018-08-11T22:48:20.007Z,2.97
2018-08-11T22:50:49.484Z,3.40
2018-08-11T22:53:19.478Z,2.90
2018-08-11T22:55:48.909Z,3.03
2018-08-11T22:58:18.558Z,2.60
2018-08-11T23:00:47.833Z,2.90
2018-08-11T23:03:17.694Z,2.60
2018-08-11T23:05:46.955Z,2.67
2018-08-11T23:08:15.864Z,2.60
2018-08-11T23:10:45.058Z,3.33
2018-08-11T23:13:13.923Z,2.90
2018-08-11T23:15:42.916Z,2.63
2018-08-11T23:18:11.767Z,2.77
2018-08-11T23:20:40.591Z,3.10
2018-08-11T23:23:09.328Z,3.10
2018-08-11T23:25:39.310Z,3.10
2018-08-11T23:28:08.759Z,3.00
2018-08-11T23:30:38.483Z,2.50
2018-08-11T23:33:07.398Z,3.17
2018-08-11T23:35:36.196Z,3.03
2018-08-11T23:38:05.145Z,3.03
2018-08-11T23:40:33.925Z,3.03
2018-08-11T23:43:03.751Z,3.13
2018-08-11T23:45:32.610Z,3.50
2018-08-11T23:48:02.202Z,3.33
2018-08-11T23:50:32.985Z,4.10
2018-08-11T23:53:02.383Z,3.40
2018-08-11T23:55:31.954Z,4.00
2018-08-11T23:58:01.285Z,3.80
